createdAt,value
2022-10-05T00:00:01.010Z,10.45
2022-10-05T00:00:35.748Z,11.07
2022-10-05T00:01:23.026Z,15.10
2022-10-05T00:01:57.740Z,7.15
2022-10-05T00:02:32.650Z,8.63
2022-10-05T00:03:11.379Z,9.23
2022-10-05T00:03:46.082Z,19.77
2022-10-05T00:04:20.087Z,12.65
2022-10-05T00:04:54.371Z,15.95
2022-10-05T00:05:32.253Z,6.60
2022-10-05T00:06:05.104Z,12.00
2022-10-05T00:06:37.236Z,31.75
2022-10-05T00:07:16.332Z,12.43
2022-10-05T00:07:48.871Z,13.30
2022-10-05T00:08:28.126Z,11.93
2022-10-05T00:09:01.395Z,7.85
2022-10-05T00:09:34.417Z,8.90
2022-10-05T00:10:16.767Z,9.65
2022-10-05T00:10:50.069Z,13.55
2022-10-05T00:11:22.191Z,12.65
2022-10-05T00:11:56.959Z,7.22
2022-10-05T00:12:30.003Z,8.65
2022-10-05T00:13:02.207Z,15.38
2022-10-05T00:13:37.185Z,8.73
2022-10-05T00:14:18.709Z,5.45
2022-10-05T00:14:55.873Z,23.25
2022-10-05T00:15:28.160Z,6.00
2022-10-05T00:16:09.436Z,16.70
2022-10-05T00:16:44.671Z,13.82
2022-10-05T00:17:20.341Z,8.45
2022-10-05T00:17:52.467Z,12.68
2022-10-05T00:18:27.163Z,8.57
2022-10-05T00:19:00.119Z,14.43
2022-10-05T00:19:35.185Z,11.93
2022-10-05T00:20:19.338Z,11.50
2022-10-05T00:20:51.495Z,19.02
2022-10-05T00:21:26.224Z,10.32
2022-10-05T00:22:02.989Z,34.97
2022-10-05T00:22:35.218Z,6.72
2022-10-05T00:23:14.106Z,7.38
2022-10-05T00:23:51.820Z,19.35
2022-10-05T00:24:24.021Z,13.25
2022-10-05T00:24:59.270Z,8.18
2022-10-05T00:25:34.038Z,16.65
2022-10-05T00:26:14.209Z,10.52
2022-10-05T00:26:46.840Z,21.77
2022-10-05T00:27:23.986Z,7.40
2022-10-05T00:27:57.958Z,10.50
2022-10-05T00:28:31.018Z,20.73
2022-10-05T00:29:17.413Z,11.73
2022-10-05T00:29:51.679Z,21.25
2022-10-05T00:30:28.636Z,8.02
2022-10-05T00:31:01.202Z,7.28
2022-10-05T00:31:36.285Z,5.70
2022-10-05T00:32:12.701Z,10.35
2022-10-05T00:32:45.726Z,15.68
2022-10-05T00:33:17.789Z,5.43
2022-10-05T00:33:52.612Z,13.35
2022-10-05T00:34:24.866Z,13.35
2022-10-05T00:34:57.897Z,9.57
2022-10-05T00:35:32.621Z,11.38
2022-10-05T00:36:07.271Z,11.10
2022-10-05T00:36:40.292Z,9.02
2022-10-05T00:37:17.398Z,30.02
2022-10-05T00:37:54.176Z,30.38
2022-10-05T00:38:28.671Z,10.55
2022-10-05T00:39:06.314Z,13.63
2022-10-05T00:39:40.729Z,19.60
2022-10-05T00:40:29.547Z,15.27
2022-10-05T00:41:09.815Z,8.23
2022-10-05T00:41:55.637Z,14.98
2022-10-05T00:42:41.633Z,13.23
2022-10-05T00:43:34.311Z,9.95
2022-10-05T00:44:23.930Z,15.43
2022-10-05T00:45:03.004Z,8.07
2022-10-05T00:45:42.118Z,11.00
2022-10-05T00:46:20.870Z,8.75
2022-10-05T00:46:57.747Z,6.65
2022-10-05T00:47:42.758Z,7.43
2022-10-05T00:48:25.497Z,10.77
2022-10-05T00:49:09.625Z,17.88
2022-10-05T00:50:04.247Z,15.13
2022-10-05T00:51:03.561Z,14.38
2022-10-05T00:51:37.696Z,24.77
2022-10-05T00:52:23.661Z,8.20
2022-10-05T00:53:05.151Z,9.35
2022-10-05T00:53:46.541Z,22.55
2022-10-05T00:54:30.051Z,12.73
2022-10-05T00:55:10.496Z,11.80
2022-10-05T00:56:44.276Z,14.52
2022-10-05T00:57:33.975Z,11.25
2022-10-05T00:58:17.113Z,9.70
2022-10-05T00:58:58.492Z,11.10
2022-10-05T00:59:49.273Z,11.23
2022-10-05T01:00:25.462Z,7.75
2022-10-05T01:01:12.144Z,5.10
2022-10-05T01:01:55.292Z,15.20
2022-10-05T01:02:38.148Z,5.30
2022-10-05T01:03:18.762Z,10.18
2022-10-05T01:04:02.839Z,10.07
2022-10-05T01:04:46.166Z,11.57
2022-10-05T01:05:35.852Z,18.48
2022-10-05T01:06:16.745Z,9.95
2022-10-05T01:07:04.900Z,42.63
2022-10-05T01:07:44.825Z,14.48
2022-10-05T01:08:31.203Z,7.63
2022-10-05T01:09:15.508Z,18.13
2022-10-05T01:09:56.600Z,11.82
2022-10-05T01:10:35.308Z,15.32
2022-10-05T01:11:17.525Z,24.77
2022-10-05T01:11:56.297Z,10.68
2022-10-05T01:12:37.603Z,6.43
2022-10-05T01:13:24.147Z,8.30
2022-10-05T01:14:04.104Z,12.10
2022-10-05T01:14:41.459Z,16.05
2022-10-05T01:15:23.802Z,13.00
2022-10-05T01:16:04.342Z,10.65
2022-10-05T01:16:49.506Z,11.68
2022-10-05T01:17:28.165Z,7.78
2022-10-05T01:18:13.056Z,16.25
2022-10-05T01:18:54.704Z,13.45
2022-10-05T01:19:51.577Z,11.23
2022-10-05T01:20:34.594Z,9.75
2022-10-05T01:21:14.714Z,9.38
2022-10-05T01:21:53.611Z,10.20
2022-10-05T01:22:43.989Z,21.05
2022-10-05T01:23:49.716Z,7.68
2022-10-05T01:24:50.826Z,8.45
2022-10-05T01:25:35.073Z,26.25
2022-10-05T01:26:35.992Z,16.02
2022-10-05T01:27:21.610Z,16.23
2022-10-05T01:28:03.148Z,5.10
2022-10-05T01:28:42.344Z,8.80
2022-10-05T01:29:21.597Z,6.50
2022-10-05T01:30:02.889Z,4.40
2022-10-05T01:30:44.818Z,9.68
2022-10-05T01:31:26.158Z,18.58
2022-10-05T01:32:08.208Z,7.55
2022-10-05T01:32:51.249Z,10.43
2022-10-05T01:33:29.235Z,6.82
2022-10-05T01:34:11.449Z,6.53
2022-10-05T01:34:52.602Z,16.73
2022-10-05T01:35:43.785Z,14.07
2022-10-05T01:36:25.030Z,9.70
2022-10-05T01:37:04.562Z,6.43
2022-10-05T01:37:48.918Z,23.05
2022-10-05T01:38:31.495Z,14.35
2022-10-05T01:39:14.173Z,18.30
2022-10-05T01:39:55.566Z,11.38
2022-10-05T01:40:33.844Z,9.68
2022-10-05T01:41:20.815Z,7.70
2022-10-05T01:42:02.183Z,13.15
2022-10-05T01:42:46.571Z,16.80
2022-10-05T01:43:33.028Z,9.65
2022-10-05T01:44:13.388Z,6.65
2022-10-05T01:45:36.738Z,14.63
2022-10-05T01:46:20.826Z,5.38
2022-10-05T01:47:03.257Z,8.20
2022-10-05T01:47:46.584Z,13.00
2022-10-05T01:48:25.455Z,9.82
2022-10-05T01:49:17.907Z,12.02
2022-10-05T01:50:00.334Z,12.55
2022-10-05T01:50:43.900Z,9.85
2022-10-05T01:51:22.590Z,14.88
2022-10-05T01:52:11.048Z,13.15
2022-10-05T01:52:55.066Z,9.80
2022-10-05T01:53:37.631Z,13.30
2022-10-05T01:54:25.393Z,16.08
2022-10-05T01:55:12.760Z,6.20
2022-10-05T01:55:55.406Z,16.92
2022-10-05T01:56:34.995Z,7.28
2022-10-05T01:57:20.911Z,27.63
2022-10-05T01:58:07.847Z,8.50
2022-10-05T01:58:51.236Z,19.58
2022-10-05T01:59:34.705Z,9.13
2022-10-05T02:00:13.016Z,7.57
2022-10-05T02:00:58.051Z,12.95
2022-10-05T02:01:36.576Z,13.68
2022-10-05T02:02:15.690Z,12.73
2022-10-05T02:02:51.177Z,19.58
2022-10-05T02:03:27.606Z,74.55
2022-10-05T02:04:08.772Z,8.80
2022-10-05T02:05:03.241Z,14.40
2022-10-05T02:05:42.250Z,17.92
2022-10-05T02:06:21.532Z,18.80
2022-10-05T02:06:54.918Z,18.17
2022-10-05T02:07:37.439Z,15.43
2022-10-05T02:08:14.638Z,32.20
2022-10-05T02:08:50.740Z,15.57
2022-10-05T02:09:29.834Z,17.48
2022-10-05T02:10:06.659Z,9.82
2022-10-05T02:10:45.097Z,18.10
2022-10-05T02:11:19.862Z,9.40
2022-10-05T02:11:59.770Z,8.40
2022-10-05T02:12:37.963Z,5.90
2022-10-05T02:13:19.562Z,10.82
2022-10-05T02:13:59.202Z,8.55
2022-10-05T02:14:38.950Z,7.65
2022-10-05T02:15:16.029Z,24.48
2022-10-05T02:15:54.782Z,14.18
2022-10-05T02:16:35.475Z,7.97
2022-10-05T02:17:14.077Z,6.68
2022-10-05T02:17:50.595Z,12.23
2022-10-05T02:18:31.087Z,14.20
2022-10-05T02:19:14.686Z,9.63
2022-10-05T02:19:55.367Z,29.20
2022-10-05T02:20:32.722Z,10.73
2022-10-05T02:21:05.845Z,7.03
2022-10-05T02:21:41.191Z,18.25
2022-10-05T02:22:20.290Z,26.30
2022-10-05T02:22:55.290Z,10.98
2022-10-05T02:23:36.050Z,16.63
2022-10-05T02:24:13.393Z,6.30
2022-10-05T02:24:52.283Z,14.48
2022-10-05T02:25:33.386Z,8.80
2022-10-05T02:26:09.050Z,15.35
2022-10-05T02:26:44.830Z,19.52
2022-10-05T02:27:23.483Z,26.05
2022-10-05T02:28:03.012Z,15.23
2022-10-05T02:28:41.720Z,15.38
2022-10-05T02:29:20.406Z,10.75
2022-10-05T02:29:58.382Z,17.13
2022-10-05T02:30:34.530Z,30.48
2022-10-05T02:31:11.268Z,6.60
2022-10-05T02:31:50.631Z,12.35
2022-10-05T02:32:25.739Z,9.02
2022-10-05T02:33:02.821Z,12.70
2022-10-05T02:33:38.364Z,18.92
2022-10-05T02:34:27.734Z,17.63
2022-10-05T02:35:17.140Z,7.28
2022-10-05T02:35:50.804Z,12.07
2022-10-05T02:36:31.271Z,19.83
2022-10-05T02:37:54.463Z,20.02
2022-10-05T02:38:38.593Z,18.45
2022-10-05T02:39:18.996Z,11.88
2022-10-05T02:40:05.263Z,14.98
2022-10-05T02:40:50.692Z,26.42
2022-10-05T02:41:36.032Z,11.70
2022-10-05T02:42:18.688Z,13.55
2022-10-05T02:43:00.757Z,20.00
2022-10-05T02:43:46.929Z,14.73
2022-10-05T02:44:33.502Z,18.35
2022-10-05T02:45:18.353Z,4.30
2022-10-05T02:45:58.008Z,23.85
2022-10-05T02:46:41.176Z,13.40
2022-10-05T02:47:22.561Z,21.60
2022-10-05T02:48:06.917Z,19.42
2022-10-05T02:48:48.797Z,24.08
2022-10-05T02:49:33.840Z,13.70
2022-10-05T02:50:16.360Z,22.05
2022-10-05T02:50:56.191Z,14.98
2022-10-05T02:51:39.767Z,8.43
2022-10-05T02:52:17.126Z,43.85
2022-10-05T02:52:59.584Z,8.43
2022-10-05T02:53:40.648Z,15.38
2022-10-05T02:54:24.450Z,11.80
2022-10-05T02:55:05.475Z,8.00
2022-10-05T02:55:46.580Z,15.55
2022-10-05T02:56:26.500Z,15.52
2022-10-05T02:57:07.578Z,21.27
2022-10-05T02:57:45.997Z,24.98
2022-10-05T02:58:23.662Z,19.95
2022-10-05T02:59:07.224Z,16.20
2022-10-05T02:59:47.131Z,18.02
2022-10-05T03:00:22.078Z,29.50
2022-10-05T03:01:03.045Z,8.88
2022-10-05T03:01:44.078Z,13.75
2022-10-05T03:02:21.332Z,19.60
2022-10-05T03:03:05.015Z,11.82
2022-10-05T03:03:42.247Z,17.65
2022-10-05T03:04:25.574Z,15.15
2022-10-05T03:05:11.732Z,12.95
2022-10-05T03:05:48.687Z,20.48
2022-10-05T03:06:27.559Z,10.80
2022-10-05T03:07:14.322Z,10.80
2022-10-05T03:07:55.895Z,12.77
2022-10-05T03:08:40.199Z,25.13
2022-10-05T03:09:15.558Z,36.78
2022-10-05T03:10:00.881Z,26.05
2022-10-05T03:10:41.927Z,14.88
2022-10-05T03:11:24.400Z,18.65
2022-10-05T03:12:12.463Z,19.48
2022-10-05T03:12:52.943Z,15.10
2022-10-05T03:13:42.314Z,90.57
2022-10-05T03:14:23.227Z,33.17
2022-10-05T03:15:04.134Z,7.55
2022-10-05T03:15:52.405Z,32.40
2022-10-05T03:16:38.508Z,22.25
2022-10-05T03:17:19.247Z,28.23
2022-10-05T03:18:04.355Z,22.70
2022-10-05T03:18:49.370Z,39.55
2022-10-05T03:19:33.436Z,14.57
2022-10-05T03:20:25.422Z,8.43
2022-10-05T03:21:11.105Z,32.55
2022-10-05T03:21:53.687Z,35.45
2022-10-05T03:22:41.433Z,55.70
2022-10-05T03:23:22.287Z,62.38
2022-10-05T03:24:15.216Z,21.08
2022-10-05T03:25:17.517Z,56.90
2022-10-05T03:26:10.412Z,41.92
2022-10-05T03:26:53.347Z,46.10
2022-10-05T03:27:39.362Z,28.25
2022-10-05T03:28:19.259Z,14.07
2022-10-05T03:29:03.441Z,19.80
2022-10-05T03:29:43.673Z,26.52
2022-10-05T03:30:21.931Z,12.13
2022-10-05T03:31:05.650Z,37.25
2022-10-05T03:31:49.767Z,52.72
2022-10-05T03:32:30.384Z,65.90
2022-10-05T03:33:11.629Z,42.70
2022-10-05T03:33:50.884Z,48.38
2022-10-05T03:34:30.251Z,33.28
2022-10-05T03:35:07.923Z,29.77
2022-10-05T03:35:53.237Z,36.83
2022-10-05T03:36:32.636Z,48.63
2022-10-05T03:37:14.726Z,77.80
2022-10-05T03:37:53.620Z,50.83
2022-10-05T03:38:37.836Z,42.80
2022-10-05T03:39:16.167Z,40.75
2022-10-05T03:39:57.563Z,27.23
2022-10-05T03:40:38.815Z,31.17
2022-10-05T03:41:24.266Z,50.10
2022-10-05T03:42:04.176Z,38.75
2022-10-05T03:42:52.267Z,45.60
2022-10-05T03:43:52.513Z,58.25
2022-10-05T03:44:36.895Z,34.85
2022-10-05T03:45:26.590Z,35.10
2022-10-05T03:46:09.337Z,50.92
2022-10-05T03:46:56.729Z,29.88
2022-10-05T03:47:36.978Z,19.42
2022-10-05T03:48:12.018Z,20.45
2022-10-05T03:48:55.310Z,34.38
2022-10-05T03:49:36.943Z,32.88
2022-10-05T03:50:33.586Z,36.70
2022-10-05T03:51:13.333Z,18.40
2022-10-05T03:51:49.213Z,77.10
2022-10-05T03:52:29.431Z,23.08
2022-10-05T03:53:06.049Z,26.92
2022-10-05T03:53:44.155Z,22.80
2022-10-05T03:54:25.905Z,24.20
2022-10-05T03:55:03.758Z,25.88
2022-10-05T03:55:41.154Z,15.57
2022-10-05T03:56:20.426Z,23.58
2022-10-05T03:56:55.828Z,23.70
2022-10-05T03:57:36.315Z,22.00
2022-10-05T03:58:16.187Z,36.67
2022-10-05T03:59:00.994Z,47.28
2022-10-05T03:59:40.577Z,28.77
2022-10-05T04:00:16.562Z,72.30
2022-10-05T04:01:10.303Z,31.70
2022-10-05T04:01:48.114Z,33.10
2022-10-05T04:02:25.264Z,32.38
2022-10-05T04:03:05.639Z,28.42
2022-10-05T04:03:44.273Z,27.70
2022-10-05T04:04:21.395Z,22.17
2022-10-05T04:05:01.931Z,23.92
2022-10-05T04:05:39.618Z,38.53
2022-10-05T04:06:18.071Z,35.20
2022-10-05T04:06:55.874Z,58.30
2022-10-05T04:07:42.853Z,52.60
2022-10-05T04:08:27.824Z,39.72
2022-10-05T04:09:04.611Z,23.67
2022-10-05T04:09:41.260Z,27.58
2022-10-05T04:10:21.940Z,60.70
2022-10-05T04:10:57.341Z,41.40
2022-10-05T04:11:35.646Z,33.80
2022-10-05T04:12:19.089Z,37.72
2022-10-05T04:12:58.653Z,51.80
2022-10-05T04:13:38.401Z,45.30
2022-10-05T04:14:15.493Z,38.13
2022-10-05T04:14:52.157Z,40.50
2022-10-05T04:15:33.764Z,38.33
2022-10-05T04:16:14.406Z,54.03
2022-10-05T04:16:52.706Z,55.47
2022-10-05T04:17:35.729Z,34.38
2022-10-05T04:18:21.051Z,40.15
2022-10-05T04:19:04.092Z,47.20
2022-10-05T04:19:44.409Z,44.20
2022-10-05T04:20:21.320Z,87.43
2022-10-05T04:21:01.727Z,81.50
2022-10-05T04:21:43.948Z,59.15
2022-10-05T04:22:21.133Z,43.15
2022-10-05T04:23:03.297Z,62.40
2022-10-05T04:23:48.361Z,74.50
2022-10-05T04:24:31.665Z,66.28
2022-10-05T04:25:14.807Z,60.40
2022-10-05T04:25:51.685Z,44.28
2022-10-05T04:26:34.806Z,31.85
2022-10-05T04:27:11.501Z,29.50
2022-10-05T04:27:47.555Z,74.55
2022-10-05T04:28:32.373Z,48.42
2022-10-05T04:29:14.391Z,37.70
2022-10-05T04:29:56.923Z,41.15
2022-10-05T04:30:33.219Z,29.25
2022-10-05T04:31:07.337Z,40.28
2022-10-05T04:31:58.596Z,45.00
2022-10-05T04:32:37.642Z,36.10
2022-10-05T04:33:51.956Z,55.80
2022-10-05T04:34:42.908Z,44.80
2022-10-05T04:35:40.968Z,46.28
2022-10-05T04:36:22.452Z,53.70
2022-10-05T04:36:59.430Z,38.10
2022-10-05T04:37:46.649Z,41.13
2022-10-05T04:38:35.111Z,53.28
2022-10-05T04:39:21.715Z,39.38
2022-10-05T04:40:08.926Z,41.42
2022-10-05T04:40:55.527Z,36.88
2022-10-05T04:41:44.899Z,26.95
2022-10-05T04:42:31.561Z,48.28
2022-10-05T04:43:13.585Z,26.75
2022-10-05T04:44:00.127Z,50.13
2022-10-05T04:44:51.059Z,24.90
2022-10-05T04:45:32.965Z,34.60
2022-10-05T04:46:17.555Z,47.20
2022-10-05T04:47:15.189Z,57.33
2022-10-05T04:48:16.437Z,66.55
2022-10-05T04:49:16.885Z,53.85
2022-10-05T04:50:07.185Z,53.92
2022-10-05T04:50:55.553Z,72.93
2022-10-05T04:51:37.405Z,69.47
2022-10-05T04:52:23.447Z,32.08
2022-10-05T04:53:05.301Z,48.60
2022-10-05T04:53:46.405Z,60.63
2022-10-05T04:54:31.615Z,48.97
2022-10-05T04:55:15.702Z,45.33
2022-10-05T04:55:57.908Z,76.07
2022-10-05T04:56:37.708Z,68.75
2022-10-05T04:57:14.241Z,50.92
2022-10-05T04:58:00.364Z,43.22
2022-10-05T04:58:47.118Z,54.67
2022-10-05T04:59:42.132Z,54.10
2022-10-05T05:00:22.800Z,74.38
2022-10-05T05:01:09.796Z,56.13
2022-10-05T05:01:56.460Z,23.52
2022-10-05T05:02:43.647Z,56.17
2022-10-05T05:03:40.322Z,30.42
2022-10-05T05:04:36.585Z,38.08
2022-10-05T05:05:30.227Z,42.22
2022-10-05T05:06:17.267Z,34.92
2022-10-05T05:07:10.568Z,60.90
2022-10-05T05:07:49.770Z,47.83
2022-10-05T05:08:37.875Z,46.83
2022-10-05T05:09:47.023Z,51.35
2022-10-05T05:10:39.846Z,102.90
2022-10-05T05:11:29.255Z,60.90
2022-10-05T05:12:12.113Z,31.42
2022-10-05T05:12:57.223Z,73.68
2022-10-05T05:14:04.978Z,44.60
2022-10-05T05:14:56.055Z,50.17
2022-10-05T05:15:41.815Z,70.07
2022-10-05T05:16:26.277Z,62.97
2022-10-05T05:17:14.978Z,48.95
2022-10-05T05:18:06.809Z,57.88
2022-10-05T05:18:53.510Z,56.95
2022-10-05T05:19:40.459Z,131.20
2022-10-05T05:20:24.198Z,115.85
2022-10-05T05:21:05.754Z,125.45
2022-10-05T05:21:49.394Z,95.47
2022-10-05T05:22:31.779Z,102.00
2022-10-05T05:23:10.426Z,133.63
2022-10-05T05:23:53.304Z,92.55
2022-10-05T05:24:37.239Z,108.22
2022-10-05T05:25:34.563Z,59.72
2022-10-05T05:26:14.895Z,111.05
2022-10-05T05:27:01.337Z,72.47
2022-10-05T05:27:44.807Z,53.78
2022-10-05T05:28:29.890Z,92.90
2022-10-05T05:29:14.891Z,68.88
2022-10-05T05:29:58.938Z,62.42
2022-10-05T05:30:41.036Z,106.65
2022-10-05T05:31:27.025Z,104.20
2022-10-05T05:32:08.794Z,103.45
2022-10-05T05:32:50.326Z,105.47
2022-10-05T05:33:37.822Z,67.15
2022-10-05T05:34:26.207Z,68.80
2022-10-05T05:35:17.411Z,105.35
2022-10-05T05:36:23.430Z,97.78
2022-10-05T05:37:11.242Z,79.20
2022-10-05T05:37:53.591Z,108.95
2022-10-05T05:38:33.143Z,93.28
2022-10-05T05:39:25.850Z,92.22
2022-10-05T05:40:07.920Z,71.88
2022-10-05T05:40:48.106Z,69.55
2022-10-05T05:41:29.835Z,90.65
2022-10-05T05:42:17.793Z,78.18
2022-10-05T05:43:00.736Z,89.28
2022-10-05T05:43:42.201Z,62.13
2022-10-05T05:44:26.542Z,60.33
2022-10-05T05:45:07.585Z,118.40
2022-10-05T05:45:44.275Z,101.55
2022-10-05T05:46:51.097Z,113.35
2022-10-05T05:47:24.564Z,83.43
2022-10-05T05:48:02.973Z,91.65
2022-10-05T05:48:40.887Z,72.10
2022-10-05T05:49:20.152Z,81.70
2022-10-05T05:50:10.267Z,114.75
2022-10-05T05:50:55.295Z,68.00
2022-10-05T05:51:37.405Z,68.75
2022-10-05T05:52:18.445Z,68.57
2022-10-05T05:52:55.815Z,62.75
2022-10-05T05:53:35.378Z,57.67
2022-10-05T05:54:22.956Z,70.53
2022-10-05T05:55:02.875Z,47.78
2022-10-05T05:56:16.070Z,76.53
2022-10-05T05:56:53.433Z,27.02
2022-10-05T05:57:30.027Z,45.85
2022-10-05T05:58:12.782Z,74.57
2022-10-05T05:58:51.060Z,80.57
2022-10-05T05:59:30.630Z,51.92
2022-10-05T06:00:07.096Z,36.58
2022-10-05T06:01:02.603Z,65.25
2022-10-05T06:01:44.343Z,71.03
2022-10-05T06:02:22.007Z,63.67
2022-10-05T06:03:03.227Z,36.28
2022-10-05T06:03:43.441Z,36.38
2022-10-05T06:04:25.378Z,67.03
2022-10-05T06:05:03.407Z,72.72
2022-10-05T06:05:40.793Z,72.15
2022-10-05T06:06:19.078Z,73.20
2022-10-05T06:06:57.346Z,83.05
2022-10-05T06:07:31.516Z,70.28
2022-10-05T06:08:16.870Z,59.90
2022-10-05T06:08:53.827Z,79.60
2022-10-05T06:09:48.890Z,90.30
2022-10-05T06:10:47.498Z,59.00
2022-10-05T06:11:26.987Z,42.28
2022-10-05T06:12:05.047Z,79.10
2022-10-05T06:12:44.842Z,70.03
2022-10-05T06:13:22.535Z,50.90
2022-10-05T06:13:58.111Z,18.73
2022-10-05T06:14:38.091Z,48.45
2022-10-05T06:15:23.767Z,77.13
2022-10-05T06:15:59.973Z,45.72
2022-10-05T06:16:40.875Z,63.20
2022-10-05T06:17:18.583Z,49.38
2022-10-05T06:17:58.914Z,54.83
2022-10-05T06:18:33.167Z,36.97
2022-10-05T06:19:16.122Z,40.65
2022-10-05T06:19:53.373Z,55.78
2022-10-05T06:20:31.199Z,45.80
2022-10-05T06:21:14.400Z,41.33
2022-10-05T06:21:51.616Z,26.30
2022-10-05T06:22:30.368Z,46.05
2022-10-05T06:23:12.962Z,65.70
2022-10-05T06:23:52.009Z,45.03
2022-10-05T06:24:32.681Z,62.22
2022-10-05T06:25:17.067Z,82.75
2022-10-05T06:26:11.105Z,48.95
2022-10-05T06:27:19.481Z,60.85
2022-10-05T06:28:12.268Z,53.80
2022-10-05T06:29:00.922Z,68.57
2022-10-05T06:29:51.116Z,81.10
2022-10-05T06:30:24.118Z,37.25
2022-10-05T06:31:06.942Z,65.30
2022-10-05T06:31:58.734Z,67.63
2022-10-05T06:32:37.974Z,64.60
2022-10-05T06:33:23.153Z,44.25
2022-10-05T06:34:05.902Z,53.42
2022-10-05T06:34:56.588Z,60.10
2022-10-05T06:35:41.461Z,63.47
2022-10-05T06:36:27.292Z,36.80
2022-10-05T06:37:02.588Z,66.43
2022-10-05T06:38:00.609Z,64.43
2022-10-05T06:38:59.913Z,68.18
2022-10-05T06:40:03.311Z,39.17
2022-10-05T06:40:53.231Z,57.92
2022-10-05T06:41:42.178Z,39.60
2022-10-05T06:42:34.359Z,108.80
2022-10-05T06:43:49.365Z,82.13
2022-10-05T06:44:48.003Z,56.88
2022-10-05T06:45:54.821Z,84.25
2022-10-05T06:46:40.481Z,58.60
2022-10-05T06:47:52.706Z,79.80
2022-10-05T06:49:11.822Z,81.40
2022-10-05T06:50:04.318Z,44.55
2022-10-05T06:50:50.558Z,84.13
2022-10-05T06:51:38.884Z,46.85
2022-10-05T06:52:25.911Z,45.95
2022-10-05T06:53:50.828Z,50.20
2022-10-05T06:54:48.557Z,53.45
2022-10-05T06:55:30.298Z,85.55
2022-10-05T06:56:08.365Z,69.70
2022-10-05T06:56:48.652Z,79.32
2022-10-05T06:57:38.376Z,48.17
2022-10-05T06:58:33.408Z,41.67
2022-10-05T06:59:10.303Z,49.40
2022-10-05T06:59:52.819Z,42.15
2022-10-05T07:00:28.248Z,29.35
2022-10-05T07:01:10.813Z,40.33
2022-10-05T07:01:54.042Z,71.60
2022-10-05T07:02:33.101Z,45.65
2022-10-05T07:04:06.280Z,50.72
2022-10-05T07:04:55.738Z,65.88
2022-10-05T07:05:53.407Z,65.07
2022-10-05T07:06:37.724Z,50.70
2022-10-05T07:07:19.788Z,58.47
2022-10-05T07:07:56.458Z,31.70
2022-10-05T07:08:41.655Z,18.35
2022-10-05T07:09:28.522Z,48.78
2022-10-05T07:10:19.779Z,66.15
2022-10-05T07:11:04.829Z,50.63
2022-10-05T07:12:04.554Z,53.22
2022-10-05T07:12:52.613Z,40.88
2022-10-05T07:13:43.121Z,37.55
2022-10-05T07:14:32.068Z,57.10
2022-10-05T07:15:24.127Z,60.97
2022-10-05T07:16:05.143Z,53.22
2022-10-05T07:16:49.653Z,29.65
2022-10-05T07:17:37.389Z,52.75
2022-10-05T07:18:32.187Z,39.90
2022-10-05T07:19:21.751Z,34.78
2022-10-05T07:20:02.198Z,45.50
2022-10-05T07:20:49.351Z,87.32
2022-10-05T07:21:35.858Z,28.92
2022-10-05T07:22:33.417Z,43.83
2022-10-05T07:23:22.995Z,55.78
2022-10-05T07:24:07.229Z,48.60
2022-10-05T07:24:43.050Z,48.58
2022-10-05T07:25:20.553Z,38.17
2022-10-05T07:26:06.726Z,32.65
2022-10-05T07:26:44.035Z,57.60
2022-10-05T07:27:22.420Z,24.40
2022-10-05T07:28:00.890Z,37.20
2022-10-05T07:28:44.133Z,35.17
2022-10-05T07:29:23.818Z,39.65
2022-10-05T07:30:04.971Z,17.40
2022-10-05T07:30:47.649Z,76.80
2022-10-05T07:31:32.517Z,34.25
2022-10-05T07:32:14.642Z,42.08
2022-10-05T07:33:00.195Z,38.40
2022-10-05T07:33:40.281Z,75.57
2022-10-05T07:34:18.880Z,55.35
2022-10-05T07:35:01.652Z,46.08
2022-10-05T07:36:00.801Z,31.42
2022-10-05T07:36:58.965Z,46.13
2022-10-05T07:37:57.959Z,45.85
2022-10-05T07:38:43.565Z,56.08
2022-10-05T07:39:42.092Z,32.13
2022-10-05T07:40:24.700Z,52.25
2022-10-05T07:41:06.184Z,32.60
2022-10-05T07:41:44.177Z,40.22
2022-10-05T07:42:25.096Z,30.90
2022-10-05T07:43:16.703Z,60.30
2022-10-05T07:44:02.376Z,39.88
2022-10-05T07:44:45.566Z,27.50
2022-10-05T07:45:27.979Z,40.95
2022-10-05T07:46:12.701Z,35.13
2022-10-05T07:46:53.602Z,49.83
2022-10-05T07:47:35.698Z,50.63
2022-10-05T07:48:18.480Z,36.17
2022-10-05T07:49:03.412Z,28.85
2022-10-05T07:49:48.568Z,59.13
2022-10-05T07:50:26.786Z,52.00
2022-10-05T07:51:09.056Z,50.33
2022-10-05T07:51:48.477Z,52.13
2022-10-05T07:52:32.378Z,39.50
2022-10-05T07:53:15.732Z,77.78
2022-10-05T07:53:55.813Z,105.60
2022-10-05T07:54:38.050Z,35.10
2022-10-05T07:55:21.872Z,40.08
2022-10-05T07:56:00.378Z,35.95
2022-10-05T07:56:43.521Z,53.80
2022-10-05T07:57:24.538Z,39.58
2022-10-05T07:58:08.815Z,56.83
2022-10-05T07:58:44.433Z,50.78
2022-10-05T07:59:28.335Z,39.05
2022-10-05T08:00:04.479Z,36.95
2022-10-05T08:01:06.548Z,28.63
2022-10-05T08:01:44.762Z,78.15
2022-10-05T08:02:27.359Z,34.20
2022-10-05T08:03:08.038Z,56.90
2022-10-05T08:03:52.383Z,46.33
2022-10-05T08:04:28.525Z,38.50
2022-10-05T08:05:07.315Z,52.72
2022-10-05T08:05:42.567Z,32.35
2022-10-05T08:06:29.248Z,29.90
2022-10-05T08:07:09.812Z,57.10
2022-10-05T08:07:42.342Z,49.83
2022-10-05T08:08:25.944Z,41.15
2022-10-05T08:09:04.685Z,53.50
2022-10-05T08:09:45.539Z,60.08
2022-10-05T08:10:26.131Z,36.63
2022-10-05T08:11:05.688Z,30.25
2022-10-05T08:11:46.810Z,28.75
2022-10-05T08:12:33.958Z,23.10
2022-10-05T08:13:13.790Z,25.95
2022-10-05T08:13:54.677Z,57.67
2022-10-05T08:14:38.188Z,55.08
2022-10-05T08:15:18.126Z,42.63
2022-10-05T08:15:54.086Z,39.53
2022-10-05T08:16:31.035Z,33.42
2022-10-05T08:17:12.976Z,52.22
2022-10-05T08:17:53.476Z,34.85
2022-10-05T08:18:44.004Z,58.28
2022-10-05T08:20:03.934Z,44.80
2022-10-05T08:20:42.718Z,17.95
2022-10-05T08:21:21.566Z,38.55
2022-10-05T08:22:00.186Z,23.42
2022-10-05T08:22:47.081Z,63.00
2022-10-05T08:23:24.080Z,54.85
2022-10-05T08:24:04.201Z,48.40
2022-10-05T08:24:43.516Z,25.85
2022-10-05T08:25:24.780Z,54.90
2022-10-05T08:26:18.449Z,49.17
2022-10-05T08:26:56.246Z,81.32
2022-10-05T08:27:40.888Z,34.78
2022-10-05T08:28:18.861Z,42.58
2022-10-05T08:29:02.130Z,45.80
2022-10-05T08:29:41.115Z,21.20
2022-10-05T08:30:15.597Z,33.80
2022-10-05T08:31:02.176Z,83.05
2022-10-05T08:31:37.379Z,61.35
2022-10-05T08:32:21.009Z,48.83
2022-10-05T08:33:00.748Z,61.63
2022-10-05T08:33:46.037Z,41.58
2022-10-05T08:34:25.043Z,26.15
2022-10-05T08:35:07.140Z,48.20
2022-10-05T08:35:44.068Z,55.55
2022-10-05T08:36:25.571Z,52.05
2022-10-05T08:37:04.103Z,47.47
2022-10-05T08:37:45.380Z,51.20
2022-10-05T08:38:20.413Z,40.45
2022-10-05T08:38:55.598Z,60.30
2022-10-05T08:39:34.681Z,49.65
2022-10-05T08:40:45.309Z,24.88
2022-10-05T08:41:58.779Z,54.35
2022-10-05T08:42:51.549Z,50.13
2022-10-05T08:43:59.797Z,40.78
2022-10-05T08:45:01.972Z,52.42
2022-10-05T08:46:12.336Z,70.40
2022-10-05T08:47:10.572Z,48.78
2022-10-05T08:48:23.580Z,74.00
2022-10-05T08:49:38.869Z,49.72
2022-10-05T08:50:28.067Z,72.28
2022-10-05T08:51:23.561Z,56.00
2022-10-05T08:52:29.005Z,34.78
2022-10-05T08:53:29.030Z,75.40
2022-10-05T08:54:24.053Z,42.25
2022-10-05T08:55:37.461Z,28.80
2022-10-05T08:56:30.547Z,44.05
2022-10-05T08:57:26.891Z,44.10
2022-10-05T08:58:26.700Z,36.92
2022-10-05T08:59:24.158Z,48.40
2022-10-05T09:00:10.469Z,45.92
2022-10-05T09:00:56.902Z,53.60
2022-10-05T09:01:40.949Z,65.68
2022-10-05T09:02:37.709Z,78.63
2022-10-05T09:03:36.058Z,69.85
2022-10-05T09:04:28.360Z,94.78
2022-10-05T09:05:38.471Z,22.20
2022-10-05T09:06:30.838Z,39.85
2022-10-05T09:07:15.496Z,34.78
2022-10-05T09:08:27.426Z,40.03
2022-10-05T09:09:25.427Z,40.25
2022-10-05T09:10:37.097Z,41.85
2022-10-05T09:11:19.933Z,58.53
2022-10-05T09:12:17.135Z,56.70
2022-10-05T09:13:20.931Z,49.20
2022-10-05T09:14:17.137Z,71.65
2022-10-05T09:15:20.810Z,44.00
2022-10-05T09:16:20.369Z,26.35
2022-10-05T09:17:20.421Z,56.13
2022-10-05T09:18:29.347Z,74.00
2022-10-05T09:19:31.296Z,59.47
2022-10-05T09:20:32.591Z,80.55
2022-10-05T09:21:13.161Z,84.68
2022-10-05T09:22:00.260Z,51.65
2022-10-05T09:22:39.583Z,42.78
2022-10-05T09:23:16.791Z,81.05
2022-10-05T09:24:00.509Z,55.97
2022-10-05T09:24:55.602Z,69.43
2022-10-05T09:25:50.694Z,51.35
2022-10-05T09:26:45.999Z,29.55
2022-10-05T09:27:19.967Z,46.88
2022-10-05T09:27:59.181Z,49.55
2022-10-05T09:28:40.575Z,40.28